createdAt,value
2024-01-24T00:02:02.637Z,1.33
2024-01-24T00:04:29.502Z,1.30
2024-01-24T00:07:22.613Z,0.90
2024-01-24T00:09:49.410Z,1.05
2024-01-24T00:12:15.980Z,1.10
2024-01-24T00:14:42.950Z,1.00
2024-01-24T00:17:09.622Z,1.10
2024-01-24T00:19:36.307Z,1.20
2024-01-24T00:22:04.160Z,1.35
2024-01-24T00:24:30.834Z,1.17
2024-01-24T00:26:57.596Z,1.10
2024-01-24T00:29:24.097Z,1.20
2024-01-24T00:31:50.647Z,1.33
2024-01-24T00:34:17.277Z,1.17
2024-01-24T00:36:43.884Z,1.25
2024-01-24T00:39:10.698Z,1.52
2024-01-24T00:41:37.281Z,1.50
2024-01-24T00:44:03.923Z,1.55
2024-01-24T00:46:30.483Z,1.60
2024-01-24T00:48:57.042Z,1.90
2024-01-24T00:51:23.955Z,2.10
2024-01-24T00:53:55.031Z,2.28
2024-01-24T00:56:21.890Z,2.35
2024-01-24T00:58:48.342Z,2.33
2024-01-24T01:01:14.895Z,2.33
2024-01-24T01:03:42.504Z,3.38
2024-01-24T01:06:09.044Z,2.60
2024-01-24T01:08:35.648Z,3.40
2024-01-24T01:11:02.366Z,3.25
2024-01-24T01:13:28.986Z,3.13
2024-01-24T01:15:55.522Z,3.83
2024-01-24T01:18:22.121Z,3.80
2024-01-24T01:20:48.820Z,3.67
2024-01-24T01:23:15.349Z,4.07
2024-01-24T01:25:41.850Z,3.92
2024-01-24T01:28:08.326Z,3.97
2024-01-24T01:30:35.658Z,3.97
2024-01-24T01:33:02.249Z,4.00
2024-01-24T01:35:28.801Z,3.97
2024-01-24T01:37:55.318Z,3.30
2024-01-24T01:40:21.880Z,3.70
2024-01-24T01:42:48.469Z,4.30
2024-01-24T01:45:15.199Z,3.83
2024-01-24T01:47:42.306Z,3.38
2024-01-24T01:50:15.147Z,3.40
2024-01-24T01:52:43.645Z,4.10
2024-01-24T01:55:12.849Z,3.85
2024-01-24T01:57:42.976Z,3.80
2024-01-24T02:00:11.520Z,3.45
2024-01-24T02:02:38.156Z,3.53
2024-01-24T02:05:05.319Z,3.10
2024-01-24T02:07:31.925Z,3.20
2024-01-24T02:09:58.582Z,3.13
2024-01-24T02:12:25.184Z,2.92
2024-01-24T02:14:52.317Z,3.10
2024-01-24T02:17:18.942Z,2.58
2024-01-24T02:19:45.549Z,2.78
2024-01-24T02:22:12.038Z,2.88
2024-01-24T02:24:38.609Z,2.60
2024-01-24T02:27:05.378Z,2.80
2024-01-24T02:29:31.868Z,2.65
2024-01-24T02:31:58.390Z,2.85
2024-01-24T02:34:24.987Z,2.53
2024-01-24T02:36:51.586Z,2.47
2024-01-24T02:39:18.927Z,2.40
2024-01-24T02:41:45.608Z,2.50
2024-01-24T02:44:12.067Z,2.03
2024-01-24T02:46:38.624Z,2.45
2024-01-24T02:49:05.278Z,2.53
2024-01-24T02:51:32.255Z,2.40
2024-01-24T02:53:58.785Z,2.55
2024-01-24T02:56:25.401Z,2.40
2024-01-24T02:58:51.903Z,2.17
2024-01-24T03:01:18.549Z,2.00
2024-01-24T03:03:45.255Z,2.10
2024-01-24T03:06:12.337Z,1.80
2024-01-24T03:08:58.569Z,1.92
2024-01-24T03:11:25.452Z,2.10
2024-01-24T03:13:51.950Z,1.92
2024-01-24T03:16:18.817Z,2.20
2024-01-24T03:18:45.654Z,1.75
2024-01-24T03:21:16.264Z,1.80
2024-01-24T03:23:43.206Z,2.30
2024-01-24T03:26:09.883Z,1.80
2024-01-24T03:28:37.004Z,1.90
2024-01-24T03:31:03.981Z,1.85
2024-01-24T03:33:30.841Z,2.17
2024-01-24T03:35:57.673Z,2.03
2024-01-24T03:38:24.161Z,1.83
2024-01-24T03:40:51.282Z,1.80
2024-01-24T03:43:17.773Z,1.92
2024-01-24T03:45:45.060Z,2.10
2024-01-24T03:48:11.871Z,1.98
2024-01-24T03:50:39.199Z,1.75
2024-01-24T03:53:06.209Z,1.63
2024-01-24T03:55:33.337Z,1.85
2024-01-24T03:57:59.979Z,1.60
2024-01-24T04:00:28.944Z,1.70
2024-01-24T04:02:55.655Z,1.50
2024-01-24T04:05:22.138Z,1.80
2024-01-24T04:07:48.667Z,1.60
2024-01-24T04:10:16.683Z,1.98
2024-01-24T04:12:43.577Z,1.60
2024-01-24T04:15:10.291Z,1.92
2024-01-24T04:17:36.908Z,1.33
2024-01-24T04:20:03.717Z,1.50
2024-01-24T04:22:30.378Z,1.42
2024-01-24T04:24:58.624Z,1.33
2024-01-24T04:27:25.250Z,1.58
2024-01-24T04:29:51.761Z,1.30
2024-01-24T04:32:18.308Z,1.52
2024-01-24T04:34:45.815Z,1.00
2024-01-24T04:37:12.599Z,1.08
2024-01-24T04:39:39.092Z,1.13
2024-01-24T04:42:12.145Z,1.00
2024-01-24T04:44:43.352Z,1.40
2024-01-24T04:47:10.045Z,1.15
2024-01-24T04:49:44.546Z,1.30
2024-01-24T04:52:12.628Z,1.13
2024-01-24T04:54:39.276Z,1.33
2024-01-24T04:57:05.857Z,1.75
2024-01-24T04:59:39.022Z,1.60
2024-01-24T05:02:12.806Z,1.98
2024-01-24T05:04:39.418Z,2.00
2024-01-24T05:07:05.906Z,2.00
2024-01-24T05:09:32.433Z,2.20
2024-01-24T05:11:58.944Z,2.47
2024-01-24T05:14:25.389Z,2.80
2024-01-24T05:16:52.026Z,2.97
2024-01-24T05:19:18.694Z,2.90
2024-01-24T05:21:45.337Z,3.00
2024-01-24T05:24:12.011Z,3.50
2024-01-24T05:26:38.829Z,3.97
2024-01-24T05:29:07.375Z,3.63
2024-01-24T05:31:35.047Z,3.28
2024-01-24T05:34:03.283Z,3.65
2024-01-24T05:36:30.399Z,3.88
2024-01-24T05:38:57.120Z,4.70
2024-01-24T05:41:23.882Z,3.78
2024-01-24T05:43:50.521Z,3.65
2024-01-24T05:46:17.020Z,3.25
2024-01-24T05:48:43.808Z,4.10
2024-01-24T05:51:11.885Z,3.63
2024-01-24T05:53:41.113Z,3.83
2024-01-24T05:56:08.032Z,3.85
2024-01-24T05:58:34.591Z,4.18
2024-01-24T06:01:01.195Z,4.60
2024-01-24T06:03:27.723Z,4.38
2024-01-24T06:05:55.915Z,4.38
2024-01-24T06:08:22.535Z,4.63
2024-01-24T06:10:49.163Z,5.35
2024-01-24T06:13:15.697Z,5.22
2024-01-24T06:15:42.250Z,4.35
2024-01-24T06:18:08.748Z,4.65
2024-01-24T06:20:35.306Z,3.90
2024-01-24T06:23:02.145Z,4.53
2024-01-24T06:25:28.702Z,4.70
2024-01-24T06:27:55.270Z,4.82
2024-01-24T06:30:23.924Z,5.25
2024-01-24T06:32:53.011Z,5.32
2024-01-24T06:35:20.843Z,4.72
2024-01-24T06:37:48.995Z,4.18
2024-01-24T06:40:16.258Z,3.45
2024-01-24T06:42:42.947Z,3.88
2024-01-24T06:45:10.013Z,3.70
2024-01-24T06:47:36.524Z,3.72
2024-01-24T06:50:03.309Z,4.28
2024-01-24T06:52:31.788Z,3.42
2024-01-24T06:54:59.086Z,4.85
2024-01-24T06:57:26.415Z,3.67
2024-01-24T06:59:54.168Z,3.85
2024-01-24T07:02:20.842Z,4.13
2024-01-24T07:04:47.496Z,5.32
2024-01-24T07:07:15.706Z,4.28
2024-01-24T07:09:42.417Z,4.60
2024-01-24T07:12:09.121Z,4.47
2024-01-24T07:14:35.705Z,5.20
2024-01-24T07:17:02.891Z,4.43
2024-01-24T07:19:30.100Z,4.63
2024-01-24T07:21:56.787Z,4.30
2024-01-24T07:24:23.578Z,4.45
2024-01-24T07:26:50.092Z,4.90
2024-01-24T07:29:16.622Z,5.10
2024-01-24T07:31:43.074Z,5.03
2024-01-24T07:34:09.690Z,5.47
2024-01-24T07:36:36.326Z,5.93
2024-01-24T07:39:05.848Z,4.82
2024-01-24T07:41:32.311Z,5.60
2024-01-24T07:43:59.608Z,5.78
2024-01-24T07:46:26.764Z,5.82
2024-01-24T07:48:53.633Z,6.18
2024-01-24T07:51:22.065Z,5.90
2024-01-24T07:53:49.928Z,7.03
2024-01-24T07:56:24.349Z,6.05
2024-01-24T07:58:53.099Z,6.28
2024-01-24T08:01:20.488Z,5.68
2024-01-24T08:03:50.400Z,6.43
2024-01-24T08:06:18.762Z,5.72
2024-01-24T08:08:45.396Z,5.32
2024-01-24T08:11:12.129Z,6.28
2024-01-24T08:13:38.758Z,5.30
2024-01-24T08:16:05.696Z,6.65
2024-01-24T08:18:33.320Z,6.18
2024-01-24T08:21:00.176Z,6.22
2024-01-24T08:23:34.444Z,5.90
2024-01-24T08:26:10.530Z,6.90
2024-01-24T08:28:37.292Z,6.70
2024-01-24T08:31:03.891Z,6.30
2024-01-24T08:33:33.628Z,5.53
2024-01-24T08:36:00.546Z,6.63
2024-01-24T08:38:28.115Z,6.22
2024-01-24T08:40:54.613Z,6.18
2024-01-24T08:43:21.190Z,6.35
2024-01-24T08:45:51.524Z,6.28
2024-01-24T08:48:19.033Z,6.55
2024-01-24T08:50:45.708Z,7.43
2024-01-24T08:53:12.225Z,7.28
2024-01-24T08:55:38.862Z,7.07
2024-01-24T08:58:06.037Z,6.80
2024-01-24T09:00:32.783Z,6.97
2024-01-24T09:03:00.207Z,7.25
2024-01-24T09:05:27.069Z,7.40
2024-01-24T09:07:54.290Z,7.25
2024-01-24T09:10:21.439Z,7.80
2024-01-24T09:12:48.347Z,6.80
2024-01-24T09:15:15.114Z,7.60
2024-01-24T09:17:41.758Z,8.07
2024-01-24T09:20:09.264Z,6.85
2024-01-24T09:22:36.002Z,7.65
2024-01-24T09:25:06.499Z,7.10
2024-01-24T09:27:34.986Z,6.82
2024-01-24T09:30:01.537Z,6.75
2024-01-24T09:32:28.365Z,7.47
2024-01-24T09:34:55.235Z,7.80
2024-01-24T09:37:22.613Z,6.35
2024-01-24T09:39:51.222Z,7.05
2024-01-24T09:42:23.853Z,7.97
2024-01-24T09:44:50.925Z,7.10
2024-01-24T09:47:18.396Z,7.13
2024-01-24T09:49:45.669Z,7.18
2024-01-24T09:52:15.073Z,7.03
2024-01-24T09:54:43.387Z,7.75
2024-01-24T09:57:11.374Z,6.07
2024-01-24T09:59:38.021Z,7.55
2024-01-24T10:02:06.668Z,7.20
2024-01-24T10:04:38.480Z,7.18
2024-01-24T10:07:09.949Z,6.93
2024-01-24T10:09:36.834Z,7.13
2024-01-24T10:12:04.954Z,6.55
2024-01-24T10:14:31.787Z,7.05
2024-01-24T10:16:58.787Z,6.95
2024-01-24T10:19:26.245Z,7.38
2024-01-24T10:21:53.517Z,7.28
2024-01-24T10:24:20.719Z,6.80
2024-01-24T10:26:48.471Z,7.15
2024-01-24T10:29:16.028Z,7.55
2024-01-24T10:31:43.207Z,6.55
2024-01-24T10:34:10.521Z,7.13
2024-01-24T10:36:43.476Z,6.72
2024-01-24T10:39:15.407Z,6.63
2024-01-24T10:41:44.951Z,6.90
2024-01-24T10:44:16.407Z,6.78
2024-01-24T10:46:43.912Z,6.60
2024-01-24T10:49:13.738Z,6.65
2024-01-24T10:51:41.155Z,7.75
2024-01-24T10:54:09.174Z,6.03
2024-01-24T10:56:37.294Z,7.22
2024-01-24T10:59:07.195Z,7.50
2024-01-24T11:01:34.306Z,5.65
2024-01-24T11:04:07.682Z,7.07
2024-01-24T11:06:42.936Z,6.57
2024-01-24T11:09:35.913Z,6.60
2024-01-24T11:12:03.257Z,7.00
2024-01-24T11:14:30.860Z,6.07
2024-01-24T11:17:02.455Z,6.57
2024-01-24T11:19:30.032Z,5.65
2024-01-24T11:22:13.401Z,6.85
2024-01-24T11:24:47.266Z,6.55
2024-01-24T11:27:37.257Z,6.47
2024-01-24T11:30:39.479Z,6.28
2024-01-24T11:33:06.356Z,10.20
2024-01-24T11:35:43.095Z,10.40
2024-01-24T11:38:25.727Z,8.43
2024-01-24T11:41:23.958Z,8.07
2024-01-24T11:43:50.698Z,7.68
2024-01-24T11:46:19.755Z,6.22
2024-01-24T11:48:46.565Z,6.78
2024-01-24T11:51:15.872Z,6.65
2024-01-24T11:53:42.638Z,7.18
2024-01-24T11:56:17.017Z,6.75
2024-01-24T11:58:43.620Z,7.22
2024-01-24T12:01:14.533Z,6.70
2024-01-24T12:03:48.266Z,6.80
2024-01-24T12:06:15.079Z,6.47
2024-01-24T12:08:45.651Z,6.45
2024-01-24T12:11:12.240Z,7.55
2024-01-24T12:13:39.172Z,7.10
2024-01-24T12:16:10.098Z,6.20
2024-01-24T12:18:37.703Z,6.10
2024-01-24T12:21:09.425Z,6.13
2024-01-24T12:23:36.203Z,5.72
2024-01-24T12:26:03.626Z,6.38
2024-01-24T12:28:30.977Z,6.07
2024-01-24T12:30:58.855Z,6.90
2024-01-24T12:33:25.821Z,6.20
2024-01-24T12:35:52.626Z,6.60
2024-01-24T12:38:19.705Z,6.28
2024-01-24T12:40:53.802Z,6.63
2024-01-24T12:43:23.662Z,7.25
2024-01-24T12:45:51.779Z,6.85
2024-01-24T12:48:19.865Z,6.40
2024-01-24T12:50:50.331Z,7.07
2024-01-24T12:53:17.685Z,6.85
2024-01-24T12:55:44.566Z,6.75
2024-01-24T12:58:11.289Z,5.70
2024-01-24T13:00:38.197Z,6.03
2024-01-24T13:03:06.818Z,5.75
2024-01-24T13:05:42.889Z,6.85
2024-01-24T13:08:15.129Z,6.22
2024-01-24T13:10:44.088Z,5.90
2024-01-24T13:13:11.427Z,6.95
2024-01-24T13:15:42.396Z,6.45
2024-01-24T13:18:13.166Z,6.38
2024-01-24T13:20:41.302Z,6.90
2024-01-24T13:23:07.924Z,6.40
2024-01-24T13:25:34.622Z,6.10
2024-01-24T13:28:03.743Z,6.28
2024-01-24T13:30:30.693Z,7.53
2024-01-24T13:32:57.631Z,6.53
2024-01-24T13:35:24.457Z,6.05
2024-01-24T13:37:51.358Z,6.97
2024-01-24T13:40:19.350Z,6.65
2024-01-24T13:42:46.310Z,6.60
2024-01-24T13:45:13.132Z,6.82
2024-01-24T13:47:39.898Z,7.03
2024-01-24T13:50:07.081Z,6.72
2024-01-24T13:52:33.924Z,7.47
2024-01-24T13:55:00.710Z,6.63
2024-01-24T13:57:27.304Z,6.32
2024-01-24T13:59:53.993Z,7.03
2024-01-24T14:02:20.570Z,7.32
2024-01-24T14:04:47.311Z,7.97
2024-01-24T14:07:14.068Z,7.45
2024-01-24T14:09:41.059Z,7.35
2024-01-24T14:12:09.433Z,6.57
2024-01-24T14:14:36.435Z,6.90
2024-01-24T14:17:03.004Z,6.90
2024-01-24T14:19:29.664Z,7.45
2024-01-24T14:21:56.837Z,8.48
2024-01-24T14:24:23.413Z,7.05
2024-01-24T14:26:50.082Z,6.22
2024-01-24T14:29:16.629Z,5.90
2024-01-24T14:31:43.494Z,7.05
2024-01-24T14:34:10.324Z,7.82
2024-01-24T14:36:37.730Z,7.00
2024-01-24T14:39:07.447Z,7.22
2024-01-24T14:41:34.227Z,8.57
2024-01-24T14:44:00.834Z,8.25
2024-01-24T14:46:27.386Z,8.07
2024-01-24T14:48:54.053Z,7.95
2024-01-24T14:51:21.119Z,8.68
2024-01-24T14:53:47.887Z,8.43
2024-01-24T14:56:14.420Z,7.57
2024-01-24T14:58:41.970Z,8.15
2024-01-24T15:01:09.442Z,8.35
2024-01-24T15:03:37.172Z,8.18
2024-01-24T15:06:04.256Z,7.53
2024-01-24T15:08:30.927Z,8.55
2024-01-24T15:10:57.700Z,7.78
2024-01-24T15:13:24.176Z,7.65
2024-01-24T15:15:51.763Z,7.63
2024-01-24T15:18:20.443Z,8.77
2024-01-24T15:20:54.176Z,8.65
2024-01-24T15:23:30.099Z,8.43
2024-01-24T15:25:57.481Z,7.32
2024-01-24T15:28:24.075Z,8.35
2024-01-24T15:30:50.968Z,8.80
2024-01-24T15:33:19.298Z,8.23
2024-01-24T15:35:46.781Z,8.50
2024-01-24T15:38:13.813Z,7.65
2024-01-24T15:40:40.345Z,8.40
2024-01-24T15:43:09.911Z,8.75
2024-01-24T15:45:37.253Z,9.10
2024-01-24T15:48:04.721Z,9.50
2024-01-24T15:50:31.535Z,7.00
2024-01-24T15:52:58.189Z,8.80
2024-01-24T15:55:24.850Z,10.88
2024-01-24T15:57:52.008Z,10.43
2024-01-24T16:00:20.896Z,7.88
2024-01-24T16:02:47.662Z,9.00
2024-01-24T16:05:36.036Z,7.97
2024-01-24T16:08:05.495Z,8.73
2024-01-24T16:10:32.006Z,8.13
2024-01-24T16:12:58.681Z,10.73
2024-01-24T16:15:25.601Z,9.18
2024-01-24T16:17:52.599Z,8.68
2024-01-24T16:20:19.195Z,9.07
2024-01-24T16:22:54.297Z,9.35
2024-01-24T16:25:26.408Z,9.30
2024-01-24T16:27:54.339Z,9.32
2024-01-24T16:30:21.389Z,8.25
2024-01-24T16:32:52.811Z,9.35
2024-01-24T16:35:19.856Z,9.75
2024-01-24T16:37:46.532Z,8.68
2024-01-24T16:40:13.723Z,9.73
2024-01-24T16:42:40.958Z,8.48
2024-01-24T16:45:09.833Z,9.85
2024-01-24T16:47:36.569Z,9.32
2024-01-24T16:50:03.494Z,9.50
2024-01-24T16:52:30.013Z,7.97
2024-01-24T16:54:56.613Z,8.77
2024-01-24T16:57:23.192Z,8.95
2024-01-24T16:59:51.610Z,9.02
2024-01-24T17:02:18.133Z,7.90
2024-01-24T17:04:46.415Z,8.77
2024-01-24T17:07:13.447Z,7.85
2024-01-24T17:09:41.005Z,8.00
2024-01-24T17:12:11.061Z,8.35
2024-01-24T17:14:39.081Z,9.27
2024-01-24T17:17:08.210Z,8.32
2024-01-24T17:19:35.050Z,8.18
2024-01-24T17:22:02.440Z,8.25
2024-01-24T17:24:28.993Z,8.88
2024-01-24T17:26:55.497Z,9.13
2024-01-24T17:29:22.082Z,8.43
2024-01-24T17:31:48.798Z,8.52
2024-01-24T17:34:16.410Z,8.55
2024-01-24T17:36:43.153Z,9.23
2024-01-24T17:39:10.352Z,8.40
2024-01-24T17:41:37.109Z,8.32
2024-01-24T17:44:04.776Z,8.23
2024-01-24T17:46:31.348Z,8.40
2024-01-24T17:48:57.973Z,8.63
2024-01-24T17:51:24.696Z,7.80
2024-01-24T17:53:51.508Z,9.60
2024-01-24T17:56:21.246Z,8.32
2024-01-24T17:58:50.376Z,8.80
2024-01-24T18:01:19.227Z,8.27
2024-01-24T18:03:45.951Z,7.97
2024-01-24T18:06:13.490Z,9.52
2024-01-24T18:08:40.521Z,8.80
2024-01-24T18:11:06.998Z,9.38
2024-01-24T18:13:33.630Z,8.77
2024-01-24T18:16:00.357Z,7.72
2024-01-24T18:18:27.531Z,8.88
2024-01-24T18:20:54.871Z,8.65
2024-01-24T18:23:21.561Z,8.52
2024-01-24T18:25:49.271Z,10.10
2024-01-24T18:28:17.690Z,8.80
2024-01-24T18:30:44.430Z,8.65
2024-01-24T18:33:13.596Z,8.68
2024-01-24T18:35:40.117Z,8.27
2024-01-24T18:38:06.632Z,9.38
2024-01-24T18:40:33.293Z,8.50
2024-01-24T18:43:02.165Z,9.70
2024-01-24T18:45:29.016Z,9.15
2024-01-24T18:47:55.865Z,8.77
2024-01-24T18:50:22.774Z,8.68
2024-01-24T18:52:49.488Z,8.55
2024-01-24T18:55:17.495Z,7.85
2024-01-24T18:57:47.910Z,7.88
2024-01-24T19:00:14.831Z,9.57
2024-01-24T19:02:41.561Z,8.45
2024-01-24T19:05:13.894Z,8.68
2024-01-24T19:07:45.825Z,8.30
2024-01-24T19:10:13.022Z,7.95
2024-01-24T19:12:39.716Z,8.13
2024-01-24T19:15:07.201Z,7.68
2024-01-24T19:17:34.078Z,7.97
2024-01-24T19:20:01.017Z,8.48
2024-01-24T19:22:27.828Z,7.80
2024-01-24T19:24:54.729Z,7.60
2024-01-24T19:27:22.273Z,8.73
2024-01-24T19:29:48.849Z,8.07
2024-01-24T19:32:15.643Z,7.88
2024-01-24T19:35:01.891Z,8.15
2024-01-24T19:37:28.554Z,7.80
2024-01-24T19:39:55.848Z,7.72
2024-01-24T19:42:27.478Z,8.98
2024-01-24T19:44:54.434Z,7.65
2024-01-24T19:47:21.725Z,8.50
2024-01-24T19:49:49.176Z,9.68
2024-01-24T19:52:15.807Z,8.02
2024-01-24T19:54:42.627Z,7.65
2024-01-24T19:57:09.243Z,8.05
2024-01-24T19:59:36.102Z,7.90
2024-01-24T20:02:03.617Z,8.27
2024-01-24T20:04:30.821Z,7.93
2024-01-24T20:06:58.002Z,7.30
2024-01-24T20:09:25.379Z,7.40
2024-01-24T20:11:51.957Z,7.57
2024-01-24T20:14:18.406Z,7.88
2024-01-24T20:16:45.256Z,9.98
2024-01-24T20:19:11.887Z,9.65
2024-01-24T20:21:41.988Z,9.00
2024-01-24T20:24:12.941Z,9.75
2024-01-24T20:26:39.717Z,8.40
2024-01-24T20:29:08.363Z,8.73
2024-01-24T20:31:34.990Z,8.35
2024-01-24T20:34:02.828Z,7.97
2024-01-24T20:36:29.574Z,8.32
2024-01-24T20:38:56.996Z,7.50
2024-01-24T20:41:24.893Z,8.55
2024-01-24T20:43:52.670Z,8.60
2024-01-24T20:46:19.504Z,7.78
2024-01-24T20:48:46.185Z,7.65
2024-01-24T20:51:13.072Z,8.52
2024-01-24T20:53:39.573Z,8.38
2024-01-24T20:56:06.514Z,8.38
2024-01-24T20:58:34.435Z,8.48
2024-01-24T21:01:02.338Z,7.55
2024-01-24T21:03:29.336Z,7.82
2024-01-24T21:05:56.574Z,8.75
2024-01-24T21:08:24.655Z,7.63
2024-01-24T21:10:55.892Z,8.10
2024-01-24T21:13:29.320Z,7.90
2024-01-24T21:15:56.145Z,8.07
2024-01-24T21:18:23.413Z,8.10
2024-01-24T21:20:50.680Z,8.05
2024-01-24T21:23:17.802Z,7.68
2024-01-24T21:25:44.376Z,8.32
2024-01-24T21:28:10.931Z,7.60
2024-01-24T21:30:37.591Z,8.45
2024-01-24T21:33:04.313Z,7.05
2024-01-24T21:35:30.894Z,7.95
2024-01-24T21:37:57.900Z,8.23
2024-01-24T21:40:24.401Z,8.32
2024-01-24T21:42:51.511Z,7.57
2024-01-24T21:45:18.297Z,8.05
2024-01-24T21:47:45.240Z,8.75
2024-01-24T21:50:12.634Z,8.95
2024-01-24T21:52:39.249Z,8.27
2024-01-24T21:55:07.531Z,7.80
2024-01-24T21:57:34.292Z,8.68
2024-01-24T22:00:01.868Z,7.90
2024-01-24T22:02:31.546Z,7.00
2024-01-24T22:04:58.110Z,8.05
2024-01-24T22:07:24.886Z,7.38
2024-01-24T22:09:53.301Z,7.00
2024-01-24T22:12:20.127Z,7.68
2024-01-24T22:14:46.718Z,7.57
2024-01-24T22:17:13.229Z,8.30
2024-01-24T22:19:40.315Z,7.40
2024-01-24T22:22:06.832Z,8.10
2024-01-24T22:24:33.406Z,6.95
2024-01-24T22:27:00.398Z,8.55
2024-01-24T22:29:27.096Z,7.60
2024-01-24T22:31:53.808Z,7.30
2024-01-24T22:34:20.973Z,7.55
2024-01-24T22:36:47.834Z,8.10
2024-01-24T22:39:14.400Z,6.72
2024-01-24T22:41:42.580Z,6.93
2024-01-24T22:44:11.010Z,8.20
2024-01-24T22:46:43.634Z,7.38
2024-01-24T22:49:11.465Z,7.22
2024-01-24T22:51:39.200Z,8.05
2024-01-24T22:54:07.340Z,8.55
2024-01-24T22:56:33.925Z,7.22
2024-01-24T22:59:00.602Z,8.27
2024-01-24T23:01:28.788Z,7.28
2024-01-24T23:03:55.596Z,7.43
2024-01-24T23:06:22.189Z,7.90
2024-01-24T23:08:48.675Z,7.28
2024-01-24T23:11:15.230Z,7.60
2024-01-24T23:13:41.815Z,7.32
2024-01-24T23:16:09.188Z,7.88
2024-01-24T23:18:36.066Z,6.88
2024-01-24T23:21:02.596Z,7.88
2024-01-24T23:23:29.080Z,7.95
2024-01-24T23:25:55.600Z,7.95
2024-01-24T23:28:22.312Z,7.25
2024-01-24T23:30:49.053Z,6.95
2024-01-24T23:33:15.658Z,7.22
2024-01-24T23:35:42.998Z,7.88
2024-01-24T23:38:09.542Z,7.65
2024-01-24T23:40:36.090Z,8.23
2024-01-24T23:43:02.706Z,7.53
2024-01-24T23:45:29.427Z,7.57
2024-01-24T23:47:56.117Z,7.80
2024-01-24T23:50:23.042Z,7.53
2024-01-24T23:52:49.998Z,6.97
2024-01-24T23:55:16.756Z,7.80
2024-01-24T23:57:43.374Z,7.38
